Data for 08/06/2016

Time Sea-Level Adjusted Pressure Absolute Pressure Temperature Relative Humidity Dew Point   
(mb) (inHg) (mb) (inHg) (C) (F) (%) (C) (F)
00:05 1017 30.03 847 25.01 23.3 73.9 24 1.6 34.9
00:10 1017 30.03 847 25.01 23.3 74 23 1.4 34.6
00:15 1017 30.03 847 25.01 23.4 74.1 24 1.7 35.1
00:20 1017 30.03 847 25.01 23.2 73.8 24 1.8 35.3
00:25 1017 30.03 847 25.01 23.2 73.7 24 1.7 35.1
00:30 1017 30.03 847 25.01 23.2 73.7 24 1.8 35.2
00:35 1017 30.03 847 25.01 23.1 73.5 24 1.7 35
00:40 1017 30.03 847 25.01 23 73.5 25 1.9 35.4
00:45 1017 30.03 847 25.01 22.9 73.2 25 1.9 35.4
00:50 1017 30.03 847 25.01 22.9 73.2 25 1.8 35.2
00:55 1017 30.03 847 25.01 22.9 73.2 25 1.8 35.2
01:00 1017 30.03 847 25.01 22.9 73.2 25 1.8 35.3
01:05 1017 30.03 847 25.01 22.8 73 25 2 35.7
01:10 1018 30.06 847 25.01 22.6 72.8 25 2 35.6
01:15 1018 30.06 847 25.01 22.6 72.7 26 2.2 35.9
01:20 1018 30.06 847 25.01 22.6 72.6 25 1.7 35
01:25 1018 30.06 847 25.01 22.8 73 26 2.2 36
01:30 1018 30.06 847 25.01 22.6 72.6 25 1.8 35.3
01:35 1018 30.06 847 25.01 22.7 72.9 25 1.6 34.9
01:40 1018 30.06 847 25.01 22.9 73.2 25 1.8 35.2
01:45 1017 30.03 847 25.01 22.9 73.2 24 1.4 34.6
01:50 1017 30.03 847 25.01 23.4 74.1 24 2 35.6
01:55 1017 30.03 847 25.01 23.1 73.6 24 1.7 35.1
02:00 1017 30.03 847 25.01 23.3 73.9 23 1.3 34.4
02:05 1017 30.03 847 25.01 23.2 73.8 24 1.8 35.2
02:10 1017 30.03 846 24.98 23 73.3 24 1.7 35
02:15 1017 30.03 846 24.98 22.8 73.1 25 1.7 35.1
02:20 1017 30.03 846 24.98 22.8 73 25 1.7 35
02:25 1017 30.03 846 24.98 22.7 72.8 25 1.9 35.4
02:30 1017 30.03 847 25.01 22.6 72.6 26 2.2 35.9
02:35 1017 30.03 846 24.98 22.5 72.5 25 2 35.5
02:40 1017 30.03 846 24.98 22.4 72.3 26 2.3 36.1
02:45 1017 30.03 846 24.98 22.1 71.7 27 2.6 36.6
02:50 1017 30.03 847 25.01 21.7 71.1 28 2.6 36.6
02:55 1017 30.03 847 25.01 21.5 70.8 28 2.4 36.4
03:00 1017 30.03 847 25.01 21.5 70.7 28 2.6 36.7
03:05 1017 30.03 847 25.01 21.5 70.7 28 2.4 36.4
03:10 1017 30.03 847 25.01 21.6 70.9 28 2.4 36.3
03:15 1017 30.03 847 25.01 21.5 70.7 29 2.7 36.9
03:20 1017 30.03 847 25.01 21.3 70.4 29 2.9 37.2
03:25 1017 30.03 847 25.01 21.1 70 30 2.9 37.3
03:30 1017 30.03 847 25.01 21.2 70.1 28 2.2 36
03:35 1017 30.03 847 25.01 21.5 70.8 28 2.6 36.8
03:40 1017 30.03 847 25.01 21.5 70.7 28 2.7 36.8
03:45 1017 30.03 847 25.01 21.6 70.9 28 2.7 36.9
03:50 1017 30.03 847 25.01 21.4 70.5 29 2.7 36.9
03:55 1017 30.03 847 25.01 21.3 70.4 29 2.7 36.9
04:00 1017 30.03 846 24.98 21.4 70.5 29 3 37.4
04:05 1017 30.03 846 24.98 21.5 70.6 29 2.7 36.8
04:10 1017 30.03 847 25.01 21.5 70.7 29 2.8 37.1
04:15 1017 30.03 847 25.01 21.4 70.4 29 2.8 37
04:20 1017 30.03 847 25.01 21.4 70.5 29 2.7 36.9
04:25 1017 30.03 847 25.01 21.3 70.3 29 2.8 37.1
04:30 1017 30.03 847 25.01 21.2 70.2 29 2.7 36.9
04:35 1018 30.06 847 25.01 21.2 70.2 29 2.4 36.4
04:40 1017 30.03 847 25.01 21.2 70.2 30 3 37.4
04:45 1017 30.03 847 25.01 21.1 69.9 29 2.5 36.5
04:50 1018 30.06 847 25.01 21.2 70.1 31 3.7 38.6
04:55 1018 30.06 847 25.01 21.1 70 30 3 37.4
05:00 1018 30.06 847 25.01 21 69.8 30 3.1 37.5
05:05 1018 30.06 847 25.01 20.9 69.6 36 5.3 41.6
05:10 1018 30.06 847 25.01 20.6 69.1 33 3.9 39.1
05:15 1018 30.06 847 25.01 20.1 68.2 35 4.5 40
05:20 1018 30.06 847 25.01 19.6 67.2 37 4.8 40.6
05:25 1018 30.06 847 25.01 19.2 66.6 36 4 39.1
05:30 1018 30.06 847 25.01 19.3 66.7 35 3.6 38.5
05:35 1018 30.06 847 25.01 19.6 67.3 35 3.8 38.8
05:40 1018 30.06 847 25.01 19.5 67.1 36 4.3 39.8
05:45 1018 30.06 847 25.01 19.3 66.7 36 4 39.1
05:50 1018 30.06 847 25.01 19.3 66.8 36 4 39.2
05:55 1018 30.06 847 25.01 19.5 67.2 34 3.4 38.2
06:00 1018 30.06 847 25.01 19.7 67.4 34 3.4 38.1
06:05 1018 30.06 847 25.01 19.8 67.7 34 3.5 38.4
06:10 1018 30.06 847 25.01 20 67.9 33 3.2 37.7
06:15 1018 30.06 847 25.01 20.3 68.5 32 3.2 37.8
06:20 1018 30.06 847 25.01 20.3 68.5 33 3.5 38.2
06:25 1018 30.06 847 25.01 20.2 68.4 33 3.4 38.1
06:30 1018 30.06 847 25.01 20.3 68.5 32 3.4 38.2
06:35 1018 30.06 847 25.01 20.4 68.6 32 3.4 38.1
06:40 1018 30.06 847 25.01 20.4 68.7 32 3.5 38.3
06:45 1018 30.06 847 25.01 20.4 68.7 32 3.3 37.9
06:50 1018 30.06 847 25.01 20.5 68.9 32 3.3 38
06:55 1018 30.06 847 25.01 20.6 69.1 32 3.4 38.2
07:00 1018 30.06 847 25.01 20.7 69.2 32 3.5 38.3
07:05 1018 30.06 847 25.01 20.7 69.3 31 3.3 38
07:10 1018 30.06 847 25.01 20.9 69.5 32 3.6 38.6
07:15 1018 30.06 847 25.01 20.8 69.4 31 3.3 38
07:20 1018 30.06 847 25.01 20.9 69.6 32 3.7 38.6
07:25 1018 30.06 847 25.01 20.8 69.4 34 4.7 40.5
07:30 1018 30.06 847 25.01 20.6 69.1 33 4 39.2
07:35 1018 30.06 847 25.01 20.5 68.9 34 4.3 39.8
07:40 1018 30.06 847 25.01 20.4 68.7 33 3.8 38.8
07:45 1018 30.06 847 25.01 20.5 68.9 34 4.1 39.3
07:50 1018 30.06 847 25.01 20.6 69.1 33 3.9 39.1
07:55 1018 30.06 847 25.01 20.7 69.2 33 4 39.2
08:00 1018 30.06 847 25.01 20.8 69.4 32 3.9 38.9
08:05 1018 30.06 847 25.01 20.9 69.6 32 3.9 39
08:10 1018 30.06 847 25.01 21 69.8 31 3.6 38.4
08:15 1018 30.06 847 25.01 21.1 70 31 3.7 38.6
08:20 1018 30.06 847 25.01 21.2 70.1 31 3.7 38.6
08:25 1018 30.06 847 25.01 21.2 70.1 32 3.8 38.9
08:30 1018 30.06 847 25.01 21.1 70.1 32 4 39.2
08:35 1018 30.06 847 25.01 21.1 70 32 4.1 39.4
08:40 1018 30.06 847 25.01 21 69.8 33 4.2 39.5
08:45 1018 30.06 847 25.01 21 69.8 33 4.1 39.3
08:50 1018 30.06 847 25.01 21.1 70 32 4.1 39.3
08:55 1018 30.06 847 25.01 21.4 70.5 32 4.2 39.5
09:00 1018 30.06 847 25.01 21.8 71.2 32 4.6 40.2
09:05 1018 30.06 847 25.01 22 71.6 31 4.5 40.1
09:10 1018 30.06 847 25.01 22.4 72.4 31 4.8 40.7
09:15 1018 30.06 847 25.01 22.6 72.7 30 4.3 39.8
09:20 1018 30.06 847 25.01 22.8 73 29 4.2 39.6
09:25 1018 30.06 847 25.01 23.1 73.7 29 4.4 39.9
09:30 1018 30.06 847 25.01 23.2 73.8 29 4.3 39.8
09:35 1018 30.06 847 25.01 23.8 74.8 28 4.4 40
09:40 1018 30.06 847 25.01 23.9 75 28 4.5 40
09:45 1018 30.06 847 25.01 23.9 75 29 4.8 40.6
09:50 1018 30.06 847 25.01 24 75.2 28 4.6 40.2
09:55 1018 30.06 847 25.01 24.1 75.4 28 4.6 40.4
10:00 1018 30.06 847 25.01 24.2 75.6 27 4.5 40.1
10:05 1018 30.06 847 25.01 24.5 76.1 27 4.4 40
10:10 1018 30.06 847 25.01 24.7 76.4 26 4.2 39.6
10:15 1018 30.06 847 25.01 24.7 76.5 27 4.8 40.6
10:20 1018 30.06 847 25.01 24.8 76.6 26 4.4 40
10:25 1017 30.03 847 25.01 24.9 76.8 27 4.7 40.5
10:30 1017 30.03 847 25.01 25.2 77.4 26 4.7 40.4
10:35 1017 30.03 847 25.01 25.1 77.2 27 4.9 40.8
10:40 1017 30.03 847 25.01 25.1 77.2 26 4.5 40.2
10:45 1017 30.03 847 25.01 25.5 77.9 26 4.6 40.2
10:50 1017 30.03 846 24.98 25.7 78.2 25 4.6 40.3
10:55 1017 30.03 846 24.98 25.6 78.2 25 4.4 39.9
11:00 1017 30.03 846 24.98 25.6 78.1 26 4.7 40.5
11:05 1017 30.03 846 24.98 25.7 78.2 25 4.6 40.2
11:10 1017 30.03 846 24.98 25.9 78.7 24 4.3 39.7
11:15 1017 30.03 846 24.98 25.9 78.6 25 4.5 40.1
11:20 1017 30.03 846 24.98 26.1 79 24 3.9 39.1
11:25 1017 30.03 846 24.98 26.3 79.4 23 4.1 39.4
11:30 1017 30.03 846 24.98 26.2 79.2 24 4.2 39.5
11:35 1017 30.03 846 24.98 26 78.8 24 4.2 39.6
11:40 1017 30.03 846 24.98 26.2 79.2 24 4.3 39.7
11:45 1017 30.03 846 24.98 26.8 80.2 23 4.1 39.4
11:50 1017 30.03 846 24.98 26.8 80.3 23 4 39.2
11:55 1017 30.03 846 24.98 26.8 80.3 23 4.3 39.7
12:00 1017 30.03 846 24.98 27.1 80.7 22 3.9 39
12:05 1017 30.03 846 24.98 27.2 81 23 4.5 40.1
12:10 1017 30.03 846 24.98 27.7 81.8 21 4 39.2
12:15 1016 30 846 24.98 27.5 81.6 22 4.3 39.7
12:20 1016 30 846 24.98 27.5 81.5 23 4.6 40.3
12:25 1016 30 845 24.95 27.1 80.7 22 4.1 39.4
12:30 1016 30 845 24.95 27.5 81.5 21 3.8 38.9
12:35 1016 30 845 24.95 27.5 81.4 21 3.3 38
12:40 1016 30 846 24.98 27.2 80.9 22 3.8 38.8
12:45 1016 30 846 24.98 26.7 80 22 3.3 38
12:50 1017 30.03 846 24.98 26.2 79.2 23 3.5 38.3
12:55 1016 30 846 24.98 26.1 78.9 23 3.5 38.3
13:00 1016 30 845 24.95 26.3 79.4 16 -1.6 29.1
13:05 1016 30 845 24.95 26.7 80.1 19 1.8 35.2
13:10 1016 30 846 24.98 26.1 79 23 3.7 38.6
13:15 1016 30 846 24.98 25.7 78.2 24 3.9 39
13:20 1016 30 846 24.98 25.5 78 22 2.8 37.1
13:25 1016 30 846 24.98 25.4 77.7 24 3.4 38.1
13:30 1017 30.03 846 24.98 25 77 25 4 39.1
13:35 1017 30.03 846 24.98 24.4 75.9 30 5.8 42.5
13:40 1017 30.03 846 24.98 23.8 74.8 30 5.3 41.6
13:45 1017 30.03 846 24.98 23.6 74.6 30 5.2 41.4
13:50 1016 30 846 24.98 23.5 74.2 37 8 46.4
13:55 1016 30 845 24.95 23.3 74 33 6.3 43.3
14:00 1016 30 845 24.95 24.1 75.4 30 5.8 42.5
14:05 1016 30 845 24.95 24.9 76.7 31 6.9 44.4
14:10 1016 30 845 24.95 24.9 76.8 31 6.7 44.1
14:15 1016 30 845 24.95 24.8 76.7 26 4.1 39.4
14:20 1016 30 845 24.95 25.6 78 22 2.8 37
14:25 1016 30 845 24.95 25.9 78.5 23 3.5 38.3
14:30 1016 30 845 24.95 26.1 79 25 4.5 40.1
14:35 1016 30 845 24.95 26.7 80.1 21 3 37.4
14:40 1015 29.97 845 24.95 27.1 80.7 20 2.4 36.3
14:45 1015 29.97 845 24.95 27.5 81.4 19 1.8 35.2
14:50 1015 29.97 844 24.92 27.3 81.1 20 2.6 36.7
14:55 1015 29.97 844 24.92 27.7 81.9 20 3.2 37.7
15:00 1015 29.97 844 24.92 27.7 81.8 23 5.2 41.4
15:05 1015 29.97 844 24.92 27.6 81.8 22 4.2 39.5
15:10 1015 29.97 844 24.92 27.4 81.2 21 3.4 38.2
15:15 1015 29.97 844 24.92 26.7 80 22 3.2 37.7
15:20 1015 29.97 844 24.92 26.3 79.3 21 2.4 36.3
15:25 1015 29.97 844 24.92 26.2 79.2 20 2 35.6
15:30 1015 29.97 844 24.92 26.3 79.4 19 1.3 34.3
15:35 1015 29.97 844 24.92 26.3 79.3 21 2.2 36
15:40 1015 29.97 844 24.92 26.4 79.4 21 2.8 37.1
15:45 1015 29.97 845 24.95 26.3 79.3 21 2.4 36.4
15:50 1016 30 845 24.95 26.2 79.1 24 4.2 39.6
15:55 1016 30 845 24.95 24.9 76.9 26 4.5 40.1
16:00 1016 30 845 24.95 24.1 75.5 27 4.4 40
16:05 1016 30 845 24.95 23.4 74.1 30 5 41
16:10 1016 30 846 24.98 23.3 74 29 4.6 40.3
16:15 1016 30 846 24.98 23.4 74.1 32 5.8 42.4
16:20 1016 30 846 24.98 22.6 72.7 38 7.6 45.7
16:25 1017 30.03 846 24.98 21.8 71.2 41 8 46.4
16:30 1017 30.03 846 24.98 21.4 70.5 38 6.5 43.8
16:35 1017 30.03 846 24.98 21.4 70.5 41 7.9 46.2
16:40 1017 30.03 846 24.98 21.5 70.8 44 9.1 48.4
16:45 1017 30.03 846 24.98 21.4 70.5 42 8 46.3
16:50 1017 30.03 846 24.98 21.5 70.7 39 7.3 45.1
16:55 1017 30.03 847 25.01 21.7 71 41 8.2 46.7
17:00 1018 30.06 847 25.01 21.7 71.1 43 8.6 47.5
17:05 1018 30.06 847 25.01 21.8 71.2 43 8.7 47.7
17:10 1018 30.06 847 25.01 21.7 71.1 43 8.7 47.7
17:15 1018 30.06 847 25.01 21.5 70.7 42 8.3 47
17:20 1018 30.06 847 25.01 21.5 70.7 44 8.8 47.8
17:25 1019 30.09 848 25.04 21.4 70.6 44 8.8 47.8
17:30 1019 30.09 848 25.04 21.3 70.4 48 10 50
17:35 1020 30.12 849 25.07 20.3 68.6 50 9.7 49.5
17:40 1020 30.12 849 25.07 19.4 66.9 56 10.4 50.8
17:45 1020 30.12 849 25.07 18.8 65.8 55 9.6 49.2
17:50 1020 30.12 849 25.07 18.6 65.5 53 8.9 48
17:55 1020 30.12 849 25.07 18.5 65.3 53 9 48.2
18:00 1020 30.12 849 25.07 18.5 65.3 54 9.1 48.4
18:05 1020 30.12 849 25.07 18.4 65.1 54 9 48.2
18:10 1020 30.12 849 25.07 18.4 65.1 54 9 48.2
18:15 1020 30.12 849 25.07 18.3 65 54 9 48.3
18:20 1020 30.12 849 25.07 18.2 64.8 56 9.3 48.7
18:25 1020 30.12 850 25.1 18 64.4 57 9.5 49.1
18:30 1021 30.15 850 25.1 17.7 63.8 61 10.1 50.2
18:35 1021 30.15 850 25.1 17.2 63 61 9.8 49.6
18:40 1021 30.15 850 25.1 16.8 62.3 63 9.9 49.8
18:45 1021 30.15 850 25.1 16.6 61.8 66 10.3 50.5
18:50 1021 30.15 850 25.1 16.3 61.4 67 10.2 50.4
18:55 1021 30.15 850 25.1 16.5 61.7 68 10.5 51
19:00 1020 30.12 850 25.1 16.4 61.5 67 10.4 50.7
19:05 1020 30.12 849 25.07 16.1 61 70 10.8 51.4
19:10 1020 30.12 849 25.07 15.7 60.3 76 11.6 52.9
19:15 1020 30.12 849 25.07 15.6 60 73 10.8 51.5
19:20 1019 30.09 849 25.07 15.4 59.6 71 10.3 50.5
19:25 1019 30.09 848 25.04 15.4 59.6 70 10 50.1
19:30 1018 30.06 848 25.04 15.2 59.3 76 11.1 52
19:35 1018 30.06 847 25.01 15 59.1 73 10.2 50.4
19:40 1018 30.06 847 25.01 15.3 59.6 74 10.7 51.3
19:45 1018 30.06 847 25.01 15.2 59.4 72 10.2 50.3
19:50 1018 30.06 847 25.01 15.3 59.5 71 10.1 50.3
19:55 1018 30.06 848 25.04 15.3 59.6 69 9.8 49.6
20:00 1019 30.09 848 25.04 15.4 59.8 70 10 50
20:05 1018 30.06 847 25.01 15.4 59.6 69 9.8 49.7
20:10 1018 30.06 847 25.01 15.5 59.9 69 9.9 49.8
20:15 1018 30.06 847 25.01 15.5 59.8 67 9.4 49
20:20 1018 30.06 847 25.01 15.9 60.6 64 9.1 48.4
20:25 1018 30.06 847 25.01 16.2 61.2 64 9.4 48.9
20:30 1018 30.06 847 25.01 16.3 61.3 61 8.8 47.9
20:35 1018 30.06 847 25.01 16.6 61.9 58 8.4 47.1
20:40 1018 30.06 848 25.04 16.9 62.5 57 8.5 47.3
20:45 1018 30.06 847 25.01 17 62.5 58 8.7 47.6
20:50 1018 30.06 847 25.01 17.1 62.7 53 7.5 45.5
20:55 1018 30.06 848 25.04 17.3 63.1 57 8.8 47.9
21:00 1018 30.06 848 25.04 16.8 62.2 59 8.8 47.9
21:05 1018 30.06 848 25.04 16.5 61.7 61 9.1 48.3
21:10 1019 30.09 848 25.04 16.4 61.5 61 8.9 48
21:15 1019 30.09 848 25.04 16.3 61.4 62 9.1 48.4
21:20 1019 30.09 848 25.04 16.2 61.1 62 9 48.2
21:25 1019 30.09 848 25.04 16.2 61.2 62 9.1 48.3
21:30 1019 30.09 848 25.04 16.1 61 61 8.8 47.8
21:35 1019 30.09 848 25.04 16.2 61.1 62 8.9 48.1
21:40 1019 30.09 848 25.04 16 60.9 62 8.9 48
21:45 1019 30.09 848 25.04 16.1 61 61 8.6 47.4
21:50 1019 30.09 848 25.04 16.3 61.4 60 8.7 47.6
21:55 1019 30.09 848 25.04 16.2 61.1 61 8.8 47.9
22:00 1019 30.09 848 25.04 16 60.8 62 8.7 47.7
22:05 1019 30.09 848 25.04 16 60.8 62 8.8 47.9
22:10 1019 30.09 848 25.04 15.9 60.6 62 8.8 47.9
22:15 1018 30.06 848 25.04 15.7 60.3 64 9 48.1
22:20 1018 30.06 848 25.04 15.6 60 65 9.2 48.5
22:25 1018 30.06 848 25.04 15.3 59.6 66 9.1 48.4
22:30 1018 30.06 848 25.04 15.3 59.5 66 9.1 48.3
22:35 1018 30.06 848 25.04 15.3 59.6 66 9 48.2
22:40 1018 30.06 848 25.04 15.2 59.4 67 9.2 48.6
22:45 1018 30.06 847 25.01 14.9 58.9 68 9.2 48.6
22:50 1018 30.06 847 25.01 14.7 58.5 69 9.2 48.5
22:55 1018 30.06 847 25.01 14.6 58.4 70 9.2 48.6
23:00 1018 30.06 847 25.01 14.4 58 72 9.5 49.1
23:05 1018 30.06 847 25.01 14 57.1 74 9.4 48.9
23:10 1018 30.06 847 25.01 13.6 56.6 74 9.1 48.3
23:15 1018 30.06 848 25.04 13.8 56.8 71 8.8 47.8
23:20 1018 30.06 848 25.04 14.1 57.4 71 8.9 48.1
23:25 1018 30.06 847 25.01 14.2 57.5 70 8.9 48
23:30 1018 30.06 847 25.01 14.2 57.5 70 8.9 48
23:35 1018 30.06 848 25.04 14.1 57.4 70 8.9 47.9
23:40 1018 30.06 848 25.04 14 57.3 70 8.8 47.8
23:45 1018 30.06 848 25.04 14 57.3 70 8.6 47.5
23:50 1018 30.06 848 25.04 14.1 57.4 70 8.7 47.6
23:55 1018 30.06 848 25.04 14.2 57.6 69 8.8 47.8
24:00 1018 30.06 848 25.04 14.1 57.5 69 8.7 47.6